sensor_id;sensor_type;location;lat;lon;timestamp;pressure;altitude;pressure_sealevel;temperature;humidity
6851;BME280;3464;42.728;23.296;2023-01-23T00:02:18;95661.31;;;15.05;63.38
6851;BME280;3464;42.728;23.296;2023-01-23T00:04:46;95669.36;;;15.06;63.58
6851;BME280;3464;42.728;23.296;2023-01-23T00:07:15;95667.62;;;15.21;63.28
6851;BME280;3464;42.728;23.296;2023-01-23T00:09:43;95669.27;;;15.43;62.89
6851;BME280;3464;42.728;23.296;2023-01-23T00:12:15;95684.47;;;15.51;62.46
6851;BME280;3464;42.728;23.296;2023-01-23T00:14:42;95678.91;;;15.65;62.29
6851;BME280;3464;42.728;23.296;2023-01-23T00:17:09;95687.60;;;16.05;61.63
6851;BME280;3464;42.728;23.296;2023-01-23T00:19:35;95686.52;;;15.68;62.53
6851;BME280;3464;42.728;23.296;2023-01-23T00:22:02;95686.22;;;15.29;63.26
6851;BME280;3464;42.728;23.296;2023-01-23T00:24:28;95684.09;;;15.41;63.47
6851;BME280;3464;42.728;23.296;2023-01-23T00:26:55;95682.35;;;15.54;62.96
6851;BME280;3464;42.728;23.296;2023-01-23T00:29:21;95677.77;;;16.16;61.53
6851;BME280;3464;42.728;23.296;2023-01-23T00:31:48;95679.47;;;16.18;61.47
6851;BME280;3464;42.728;23.296;2023-01-23T00:34:15;95675.67;;;16.19;61.46
6851;BME280;3464;42.728;23.296;2023-01-23T00:36:42;95679.84;;;15.46;62.50
6851;BME280;3464;42.728;23.296;2023-01-23T00:39:14;95682.30;;;15.69;61.73
6851;BME280;3464;42.728;23.296;2023-01-23T00:41:37;95677.78;;;16.18;60.95
6851;BME280;3464;42.728;23.296;2023-01-23T00:44:04;95689.02;;;15.75;61.38
6851;BME280;3464;42.728;23.296;2023-01-23T00:46:31;95687.55;;;16.11;60.53
6851;BME280;3464;42.728;23.296;2023-01-23T00:48:57;95687.10;;;16.15;60.17
6851;BME280;3464;42.728;23.296;2023-01-23T00:51:25;95693.76;;;15.58;61.41
6851;BME280;3464;42.728;23.296;2023-01-23T00:53:51;95705.62;;;15.44;61.05
6851;BME280;3464;42.728;23.296;2023-01-23T00:56:18;95696.16;;;15.84;61.11
6851;BME280;3464;42.728;23.296;2023-01-23T00:58:44;95699.31;;;16.27;59.85
6851;BME280;3464;42.728;23.296;2023-01-23T01:01:11;95690.86;;;16.26;59.63
6851;BME280;3464;42.728;23.296;2023-01-23T01:03:37;95682.11;;;16.02;60.50
6851;BME280;3464;42.728;23.296;2023-01-23T01:06:19;95682.79;;;15.46;61.73
6851;BME280;3464;42.728;23.296;2023-01-23T01:08:51;95688.73;;;15.43;62.00
6851;BME280;3464;42.728;23.296;2023-01-23T01:11:32;95681.53;;;15.47;62.00
6851;BME280;3464;42.728;23.296;2023-01-23T01:14:13;95687.17;;;16.01;61.02
6851;BME280;3464;42.728;23.296;2023-01-23T01:17:03;95688.25;;;15.53;61.88
6851;BME280;3464;42.728;23.296;2023-01-23T01:19:38;95689.84;;;15.82;61.58
6851;BME280;3464;42.728;23.296;2023-01-23T01:22:05;95690.77;;;15.59;61.65
6851;BME280;3464;42.728;23.296;2023-01-23T01:24:32;95701.23;;;15.85;61.83
6851;BME280;3464;42.728;23.296;2023-01-23T01:26:59;95702.09;;;15.81;61.59
6851;BME280;3464;42.728;23.296;2023-01-23T01:29:25;95701.80;;;15.57;62.24
6851;BME280;3464;42.728;23.296;2023-01-23T01:31:52;95709.87;;;15.35;62.89
6851;BME280;3464;42.728;23.296;2023-01-23T01:34:18;95707.63;;;15.77;62.18
6851;BME280;3464;42.728;23.296;2023-01-23T01:36:45;95713.56;;;15.74;62.59
6851;BME280;3464;42.728;23.296;2023-01-23T01:39:12;95725.95;;;15.41;63.27
6851;BME280;3464;42.728;23.296;2023-01-23T01:41:39;95715.69;;;15.68;62.68
6851;BME280;3464;42.728;23.296;2023-01-23T01:44:05;95717.94;;;15.14;63.99
6851;BME280;3464;42.728;23.296;2023-01-23T01:46:32;95718.92;;;16.00;62.10
6851;BME280;3464;42.728;23.296;2023-01-23T01:49:11;95719.57;;;15.34;63.43
6851;BME280;3464;42.728;23.296;2023-01-23T01:51:48;95713.27;;;15.23;64.20
6851;BME280;3464;42.728;23.296;2023-01-23T01:54:33;95709.04;;;15.37;64.05
6851;BME280;3464;42.728;23.296;2023-01-23T01:57:04;95710.73;;;15.21;64.15
6851;BME280;3464;42.728;23.296;2023-01-23T01:59:30;95710.73;;;15.23;63.32
6851;BME280;3464;42.728;23.296;2023-01-23T02:01:59;95709.78;;;15.70;62.86
6851;BME280;3464;42.728;23.296;2023-01-23T02:04:24;95713.44;;;16.01;61.64
6851;BME280;3464;42.728;23.296;2023-01-23T02:06:50;95718.17;;;15.83;61.39
6851;BME280;3464;42.728;23.296;2023-01-23T02:09:21;95725.52;;;15.32;63.41
6851;BME280;3464;42.728;23.296;2023-01-23T02:11:47;95722.97;;;15.45;62.69
6851;BME280;3464;42.728;23.296;2023-01-23T02:14:13;95712.81;;;15.41;63.29
6851;BME280;3464;42.728;23.296;2023-01-23T02:16:39;95721.25;;;15.55;63.17
6851;BME280;3464;42.728;23.296;2023-01-23T02:19:10;95712.68;;;15.79;62.07
6851;BME280;3464;42.728;23.296;2023-01-23T02:21:34;95714.87;;;15.67;63.20
6851;BME280;3464;42.728;23.296;2023-01-23T02:24:17;95719.18;;;15.24;64.63
6851;BME280;3464;42.728;23.296;2023-01-23T02:26:43;95730.15;;;15.48;64.29
6851;BME280;3464;42.728;23.296;2023-01-23T02:29:09;95723.31;;;15.65;64.06
6851;BME280;3464;42.728;23.296;2023-01-23T02:31:36;95714.45;;;15.65;63.28
6851;BME280;3464;42.728;23.296;2023-01-23T02:34:02;95726.22;;;15.79;63.40
6851;BME280;3464;42.728;23.296;2023-01-23T02:36:31;95731.85;;;15.28;64.70
6851;BME280;3464;42.728;23.296;2023-01-23T02:39:00;95732.32;;;15.13;64.68
6851;BME280;3464;42.728;23.296;2023-01-23T02:41:27;95734.38;;;15.44;64.28
6851;BME280;3464;42.728;23.296;2023-01-23T02:43:52;95732.16;;;15.77;63.33
6851;BME280;3464;42.728;23.296;2023-01-23T02:46:18;95739.91;;;15.29;64.63
6851;BME280;3464;42.728;23.296;2023-01-23T02:48:44;95740.31;;;15.39;64.44
6851;BME280;3464;42.728;23.296;2023-01-23T02:51:11;95732.34;;;15.00;65.07
6851;BME280;3464;42.728;23.296;2023-01-23T02:53:38;95733.13;;;15.19;64.67
6851;BME280;3464;42.728;23.296;2023-01-23T02:56:05;95739.05;;;15.33;64.25
6851;BME280;3464;42.728;23.296;2023-01-23T02:58:32;95737.38;;;15.09;65.03
6851;BME280;3464;42.728;23.296;2023-01-23T03:01:04;95742.91;;;14.82;64.99
6851;BME280;3464;42.728;23.296;2023-01-23T03:03:31;95736.15;;;14.94;64.81
6851;BME280;3464;42.728;23.296;2023-01-23T03:05:58;95736.11;;;15.14;64.63
6851;BME280;3464;42.728;23.296;2023-01-23T03:08:24;95737.81;;;14.63;65.86
6851;BME280;3464;42.728;23.296;2023-01-23T03:10:51;95745.45;;;14.90;65.48
6851;BME280;3464;42.728;23.296;2023-01-23T03:13:18;95744.56;;;14.55;65.83
6851;BME280;3464;42.728;23.296;2023-01-23T03:15:45;95738.69;;;14.68;65.82
6851;BME280;3464;42.728;23.296;2023-01-23T03:18:11;95727.69;;;14.69;65.95
6851;BME280;3464;42.728;23.296;2023-01-23T03:20:38;95731.08;;;14.99;65.44
6851;BME280;3464;42.728;23.296;2023-01-23T03:23:05;95741.20;;;14.38;66.68
6851;BME280;3464;42.728;23.296;2023-01-23T03:25:31;95740.75;;;14.33;66.82
6851;BME280;3464;42.728;23.296;2023-01-23T03:27:58;95732.33;;;14.95;65.86
6851;BME280;3464;42.728;23.296;2023-01-23T03:30:25;95731.48;;;15.04;65.39
6851;BME280;3464;42.728;23.296;2023-01-23T03:32:52;95740.34;;;15.05;65.10
6851;BME280;3464;42.728;23.296;2023-01-23T03:35:19;95730.23;;;14.81;65.31
6851;BME280;3464;42.728;23.296;2023-01-23T03:37:46;95748.69;;;14.11;67.05
6851;BME280;3464;42.728;23.296;2023-01-23T03:40:19;95730.19;;;14.26;67.30
6851;BME280;3464;42.728;23.296;2023-01-23T03:42:51;95741.20;;;14.58;65.88
6851;BME280;3464;42.728;23.296;2023-01-23T03:45:18;95740.80;;;14.61;66.38
6851;BME280;3464;42.728;23.296;2023-01-23T03:47:44;95742.44;;;15.17;65.06
6851;BME280;3464;42.728;23.296;2023-01-23T03:50:11;95749.20;;;14.40;66.87
6851;BME280;3464;42.728;23.296;2023-01-23T03:52:39;95760.64;;;14.70;65.54
6851;BME280;3464;42.728;23.296;2023-01-23T03:55:05;95745.00;;;14.58;66.12
6851;BME280;3464;42.728;23.296;2023-01-23T03:57:32;95745.31;;;14.12;67.03
6851;BME280;3464;42.728;23.296;2023-01-23T03:59:59;95745.70;;;14.01;67.29
6851;BME280;3464;42.728;23.296;2023-01-23T04:02:26;95747.52;;;14.31;66.98
6851;BME280;3464;42.728;23.296;2023-01-23T04:04:52;95747.45;;;14.20;67.74
6851;BME280;3464;42.728;23.296;2023-01-23T04:07:19;95745.00;;;14.50;67.04
6851;BME280;3464;42.728;23.296;2023-01-23T04:09:45;95761.04;;;14.41;67.12
6851;BME280;3464;42.728;23.296;2023-01-23T04:12:12;95738.58;;;14.21;67.17
6851;BME280;3464;42.728;23.296;2023-01-23T04:14:38;95745.00;;;14.61;66.04
6851;BME280;3464;42.728;23.296;2023-01-23T04:17:06;95746.27;;;14.44;66.30
6851;BME280;3464;42.728;23.296;2023-01-23T04:19:32;95771.63;;;14.74;64.94
6851;BME280;3464;42.728;23.296;2023-01-23T04:22:00;95749.98;;;14.19;65.92
6851;BME280;3464;42.728;23.296;2023-01-23T04:24:28;95748.78;;;14.29;65.70
6851;BME280;3464;42.728;23.296;2023-01-23T04:26:54;95746.98;;;14.01;66.26
6851;BME280;3464;42.728;23.296;2023-01-23T04:29:21;95740.36;;;14.89;64.11
6851;BME280;3464;42.728;23.296;2023-01-23T04:31:48;95752.61;;;14.65;64.54
6851;BME280;3464;42.728;23.296;2023-01-23T04:34:15;95754.73;;;14.86;63.71
6851;BME280;3464;42.728;23.296;2023-01-23T04:36:43;95750.48;;;14.45;64.40
6851;BME280;3464;42.728;23.296;2023-01-23T04:39:09;95750.48;;;14.48;63.85
6851;BME280;3464;42.728;23.296;2023-01-23T04:41:36;95756.82;;;15.15;62.60
6851;BME280;3464;42.728;23.296;2023-01-23T04:44:03;95759.37;;;14.77;63.10
6851;BME280;3464;42.728;23.296;2023-01-23T04:46:35;95750.45;;;15.22;62.14
6851;BME280;3464;42.728;23.296;2023-01-23T04:49:02;95743.30;;;14.34;63.93
6851;BME280;3464;42.728;23.296;2023-01-23T04:51:28;95759.77;;;14.53;63.12
6851;BME280;3464;42.728;23.296;2023-01-23T04:53:55;95761.05;;;14.62;63.48
6851;BME280;3464;42.728;23.296;2023-01-23T04:56:21;95762.75;;;14.98;62.71
6851;BME280;3464;42.728;23.296;2023-01-23T04:58:48;95759.78;;;15.07;62.28
6851;BME280;3464;42.728;23.296;2023-01-23T05:01:15;95769.06;;;14.48;63.68
6851;BME280;3464;42.728;23.296;2023-01-23T05:03:43;95761.05;;;14.90;62.58
6851;BME280;3464;42.728;23.296;2023-01-23T05:06:10;95761.03;;;14.56;63.39
6851;BME280;3464;42.728;23.296;2023-01-23T05:08:37;95775.84;;;15.47;61.90
6851;BME280;3464;42.728;23.296;2023-01-23T05:11:04;95771.62;;;15.22;61.95
6851;BME280;3464;42.728;23.296;2023-01-23T05:13:31;95766.99;;;14.79;62.95
6851;BME280;3464;42.728;23.296;2023-01-23T05:15:57;95761.86;;;14.35;64.24
6851;BME280;3464;42.728;23.296;2023-01-23T05:18:24;95769.08;;;14.65;63.80
6851;BME280;3464;42.728;23.296;2023-01-23T05:20:50;95773.51;;;13.93;65.08
6851;BME280;3464;42.728;23.296;2023-01-23T05:23:17;95778.77;;;14.53;64.57
6851;BME280;3464;42.728;23.296;2023-01-23T05:25:44;95792.65;;;14.28;64.76
6851;BME280;3464;42.728;23.296;2023-01-23T05:28:11;95796.47;;;14.34;65.02
6851;BME280;3464;42.728;23.296;2023-01-23T05:30:39;95796.05;;;14.33;65.03
6851;BME280;3464;42.728;23.296;2023-01-23T05:33:07;95810.06;;;14.80;63.55
6851;BME280;3464;42.728;23.296;2023-01-23T05:35:33;95808.73;;;14.39;64.32
6851;BME280;3464;42.728;23.296;2023-01-23T05:38:00;95815.55;;;14.73;63.38
6851;BME280;3464;42.728;23.296;2023-01-23T05:40:26;95815.52;;;14.57;63.55
6851;BME280;3464;42.728;23.296;2023-01-23T05:42:53;95821.45;;;14.69;63.60
6851;BME280;3464;42.728;23.296;2023-01-23T05:45:20;95836.28;;;14.94;63.36
6851;BME280;3464;42.728;23.296;2023-01-23T05:47:47;95818.91;;;14.69;63.90
6851;BME280;3464;42.728;23.296;2023-01-23T05:50:16;95820.58;;;14.46;64.00
6851;BME280;3464;42.728;23.296;2023-01-23T05:52:42;95824.83;;;14.68;64.08
6851;BME280;3464;42.728;23.296;2023-01-23T05:55:16;95829.92;;;14.80;63.65
6851;BME280;3464;42.728;23.296;2023-01-23T05:57:43;95830.72;;;14.55;63.58
6851;BME280;3464;42.728;23.296;2023-01-23T06:00:11;95835.37;;;14.51;63.93
6851;BME280;3464;42.728;23.296;2023-01-23T06:02:38;95850.09;;;14.38;64.51
6851;BME280;3464;42.728;23.296;2023-01-23T06:05:05;95834.55;;;14.74;63.88
6851;BME280;3464;42.728;23.296;2023-01-23T06:07:32;95845.96;;;14.69;63.61
6851;BME280;3464;42.728;23.296;2023-01-23T06:09:59;95840.90;;;14.70;63.24
6851;BME280;3464;42.728;23.296;2023-01-23T06:12:26;95848.47;;;14.61;63.81
6851;BME280;3464;42.728;23.296;2023-01-23T06:14:53;95854.77;;;14.55;63.77
6851;BME280;3464;42.728;23.296;2023-01-23T06:17:19;95856.06;;;14.58;64.33
6851;BME280;3464;42.728;23.296;2023-01-23T06:19:47;95841.25;;;14.45;64.14
6851;BME280;3464;42.728;23.296;2023-01-23T06:22:13;95854.38;;;14.57;63.84
6851;BME280;3464;42.728;23.296;2023-01-23T06:24:40;95844.63;;;14.48;64.25
6851;BME280;3464;42.728;23.296;2023-01-23T06:27:07;95843.03;;;14.82;64.09
6851;BME280;3464;42.728;23.296;2023-01-23T06:29:34;95847.63;;;14.72;63.83
6851;BME280;3464;42.728;23.296;2023-01-23T06:32:01;95824.45;;;15.06;62.96
6851;BME280;3464;42.728;23.296;2023-01-23T06:34:27;95870.31;;;14.29;64.63
6851;BME280;3464;42.728;23.296;2023-01-23T06:36:54;95845.85;;;14.31;64.89
6851;BME280;3464;42.728;23.296;2023-01-23T06:39:20;95858.17;;;14.58;63.83
6851;BME280;3464;42.728;23.296;2023-01-23T06:41:47;95852.72;;;14.73;63.51
6851;BME280;3464;42.728;23.296;2023-01-23T06:44:14;95860.65;;;14.38;64.33
6851;BME280;3464;42.728;23.296;2023-01-23T06:46:41;95855.42;;;14.09;65.63
6851;BME280;3464;42.728;23.296;2023-01-23T06:49:08;95855.99;;;14.37;64.66
6851;BME280;3464;42.728;23.296;2023-01-23T06:51:34;95861.77;;;14.11;65.06
6851;BME280;3464;42.728;23.296;2023-01-23T06:54:01;95860.52;;;14.17;64.79
6851;BME280;3464;42.728;23.296;2023-01-23T06:56:27;95868.50;;;14.07;65.48
6851;BME280;3464;42.728;23.296;2023-01-23T06:58:54;95870.27;;;14.22;65.76
6851;BME280;3464;42.728;23.296;2023-01-23T07:01:20;95863.59;;;14.39;65.87
6851;BME280;3464;42.728;23.296;2023-01-23T07:03:47;95884.32;;;14.47;65.58
6851;BME280;3464;42.728;23.296;2023-01-23T07:06:14;95886.84;;;14.45;65.56
6851;BME280;3464;42.728;23.296;2023-01-23T07:08:40;95889.31;;;14.26;66.47
6851;BME280;3464;42.728;23.296;2023-01-23T07:11:07;95895.08;;;14.04;67.02
6851;BME280;3464;42.728;23.296;2023-01-23T07:13:34;95917.27;;;13.76;67.77
6851;BME280;3464;42.728;23.296;2023-01-23T07:16:00;95890.13;;;14.25;67.01
6851;BME280;3464;42.728;23.296;2023-01-23T07:18:28;95901.88;;;14.11;67.70
6851;BME280;3464;42.728;23.296;2023-01-23T07:20:54;95921.52;;;13.79;68.69
6851;BME280;3464;42.728;23.296;2023-01-23T07:23:21;95908.87;;;13.83;67.87
6851;BME280;3464;42.728;23.296;2023-01-23T07:25:48;95899.03;;;14.33;67.77
6851;BME280;3464;42.728;23.296;2023-01-23T07:28:15;95902.08;;;14.56;66.58
6851;BME280;3464;42.728;23.296;2023-01-23T07:30:41;95909.30;;;13.85;66.78
6851;BME280;3464;42.728;23.296;2023-01-23T07:33:08;95926.30;;;14.06;66.55
6851;BME280;3464;42.728;23.296;2023-01-23T07:35:37;95909.42;;;13.40;68.28
6851;BME280;3464;42.728;23.296;2023-01-23T07:38:01;95913.83;;;14.39;65.95
6851;BME280;3464;42.728;23.296;2023-01-23T07:40:28;95910.86;;;13.66;67.36
6851;BME280;3464;42.728;23.296;2023-01-23T07:42:55;95926.09;;;13.74;67.46
6851;BME280;3464;42.728;23.296;2023-01-23T07:45:21;95927.79;;;13.20;68.65
6851;BME280;3464;42.728;23.296;2023-01-23T07:47:49;95917.63;;;13.67;68.02
6851;BME280;3464;42.728;23.296;2023-01-23T07:50:16;95933.59;;;13.59;67.27
6851;BME280;3464;42.728;23.296;2023-01-23T07:52:43;95924.33;;;13.64;67.63
6851;BME280;3464;42.728;23.296;2023-01-23T07:55:10;95922.70;;;14.42;65.78
6851;BME280;3464;42.728;23.296;2023-01-23T07:57:37;95927.22;;;14.21;65.90
6851;BME280;3464;42.728;23.296;2023-01-23T08:00:04;95932.52;;;13.87;67.29
6851;BME280;3464;42.728;23.296;2023-01-23T08:02:30;95935.14;;;14.01;66.56
6851;BME280;3464;42.728;23.296;2023-01-23T08:04:57;95944.49;;;13.53;67.35
6851;BME280;3464;42.728;23.296;2023-01-23T08:07:24;95942.38;;;13.52;68.07
6851;BME280;3464;42.728;23.296;2023-01-23T08:09:50;95958.00;;;13.55;67.23
6851;BME280;3464;42.728;23.296;2023-01-23T08:12:17;95947.75;;;13.93;67.96
6851;BME280;3464;42.728;23.296;2023-01-23T08:14:43;95946.16;;;14.08;66.13
6851;BME280;3464;42.728;23.296;2023-01-23T08:17:10;95952.81;;;13.93;66.19
6851;BME280;3464;42.728;23.296;2023-01-23T08:19:36;95957.55;;;14.14;66.00
6851;BME280;3464;42.728;23.296;2023-01-23T08:22:03;95964.80;;;14.22;65.78
6851;BME280;3464;42.728;23.296;2023-01-23T08:24:30;95956.10;;;14.46;65.35
6851;BME280;3464;42.728;23.296;2023-01-23T08:26:56;95963.52;;;15.20;63.57
6851;BME280;3464;42.728;23.296;2023-01-23T08:29:23;95961.55;;;14.44;63.85
6851;BME280;3464;42.728;23.296;2023-01-23T08:31:50;95972.55;;;14.48;63.99
6851;BME280;3464;42.728;23.296;2023-01-23T08:34:17;95978.89;;;14.44;63.86
6851;BME280;3464;42.728;23.296;2023-01-23T08:36:43;95960.46;;;14.03;64.87
6851;BME280;3464;42.728;23.296;2023-01-23T08:39:10;95980.79;;;13.56;65.33
6851;BME280;3464;42.728;23.296;2023-01-23T08:41:37;95967.38;;;13.68;64.62
6851;BME280;3464;42.728;23.296;2023-01-23T08:44:04;95966.40;;;13.50;64.91
6851;BME280;3464;42.728;23.296;2023-01-23T08:46:32;95957.02;;;13.91;64.27
6851;BME280;3464;42.728;23.296;2023-01-23T08:49:00;95968.27;;;13.25;64.57
6851;BME280;3464;42.728;23.296;2023-01-23T08:51:26;95963.50;;;13.58;64.51
6851;BME280;3464;42.728;23.296;2023-01-23T08:53:53;95963.53;;;13.60;64.24
6851;BME280;3464;42.728;23.296;2023-01-23T08:56:20;95979.11;;;13.60;63.63
6851;BME280;3464;42.728;23.296;2023-01-23T08:58:47;95968.30;;;13.76;64.10
6851;BME280;3464;42.728;23.296;2023-01-23T09:01:15;95972.78;;;13.56;63.53
6851;BME280;3464;42.728;23.296;2023-01-23T09:03:41;95983.97;;;13.87;63.05
6851;BME280;3464;42.728;23.296;2023-01-23T09:06:08;95982.33;;;13.92;62.73
6851;BME280;3464;42.728;23.296;2023-01-23T09:08:36;95995.84;;;13.93;62.53
6851;BME280;3464;42.728;23.296;2023-01-23T09:11:04;95975.41;;;13.70;62.52
6851;BME280;3464;42.728;23.296;2023-01-23T09:13:30;95975.16;;;13.41;63.70
6851;BME280;3464;42.728;23.296;2023-01-23T09:15:57;95963.70;;;13.84;61.65
6851;BME280;3464;42.728;23.296;2023-01-23T09:18:25;95986.89;;;14.42;60.97
6851;BME280;3464;42.728;23.296;2023-01-23T09:20:52;95986.28;;;14.16;61.12
6851;BME280;3464;42.728;23.296;2023-01-23T09:23:18;95965.94;;;14.04;61.19
6851;BME280;3464;42.728;23.296;2023-01-23T09:25:46;95984.27;;;14.29;60.76
6851;BME280;3464;42.728;23.296;2023-01-23T09:28:12;95977.84;;;15.04;58.82
6851;BME280;3464;42.728;23.296;2023-01-23T09:30:40;95984.76;;;14.38;59.54
6851;BME280;3464;42.728;23.296;2023-01-23T09:33:07;95973.72;;;14.30;60.07
6851;BME280;3464;42.728;23.296;2023-01-23T09:35:34;95967.22;;;14.81;59.53
6851;BME280;3464;42.728;23.296;2023-01-23T09:38:02;95959.64;;;14.97;58.60
6851;BME280;3464;42.728;23.296;2023-01-23T09:40:36;95972.60;;;14.59;59.33
6851;BME280;3464;42.728;23.296;2023-01-23T09:43:12;95968.14;;;14.18;59.60
6851;BME280;3464;42.728;23.296;2023-01-23T09:45:41;95985.18;;;13.79;60.62
6851;BME280;3464;42.728;23.296;2023-01-23T09:48:20;95984.47;;;13.97;60.34
6851;BME280;3464;42.728;23.296;2023-01-23T09:50:59;95976.39;;;13.88;61.04
6851;BME280;3464;42.728;23.296;2023-01-23T09:53:25;95971.84;;;14.74;59.23
6851;BME280;3464;42.728;23.296;2023-01-23T09:55:57;95970.50;;;13.88;60.44
6851;BME280;3464;42.728;23.296;2023-01-23T09:58:24;95978.98;;;14.64;59.04
6851;BME280;3464;42.728;23.296;2023-01-23T10:00:49;95970.91;;;13.85;60.77
6851;BME280;3464;42.728;23.296;2023-01-23T10:03:17;95984.73;;;13.77;61.45
6851;BME280;3464;42.728;23.296;2023-01-23T10:10:16;95974.83;;;13.49;62.28
6851;BME280;3464;42.728;23.296;2023-01-23T10:14:53;95971.25;;;13.75;62.09
6851;BME280;3464;42.728;23.296;2023-01-23T10:17:21;95993.85;;;14.13;61.33
6851;BME280;3464;42.728;23.296;2023-01-23T10:19:58;95979.80;;;13.92;61.71
6851;BME280;3464;42.728;23.296;2023-01-23T10:22:38;95968.02;;;13.96;61.45
6851;BME280;3464;42.728;23.296;2023-01-23T10:25:16;95960.65;;;13.69;61.83
6851;BME280;3464;42.728;23.296;2023-01-23T10:28:11;95975.02;;;13.74;61.66
6851;BME280;3464;42.728;23.296;2023-01-23T10:30:37;95949.19;;;13.62;62.13
6851;BME280;3464;42.728;23.296;2023-01-23T10:33:18;95959.78;;;13.67;62.32
6851;BME280;3464;42.728;23.296;2023-01-23T10:36:14;95959.97;;;13.93;61.68
6851;BME280;3464;42.728;23.296;2023-01-23T10:39:07;95960.09;;;14.09;61.57
6851;BME280;3464;42.728;23.296;2023-01-23T10:41:55;95963.81;;;14.76;59.64
6851;BME280;3464;42.728;23.296;2023-01-23T10:44:29;95966.69;;;14.54;59.16
6851;BME280;3464;42.728;23.296;2023-01-23T10:46:57;95953.19;;;14.63;59.84
6851;BME280;3464;42.728;23.296;2023-01-23T10:49:28;95957.54;;;14.94;59.38
6851;BME280;3464;42.728;23.296;2023-01-23T10:51:54;95964.19;;;14.65;59.68
6851;BME280;3464;42.728;23.296;2023-01-23T10:54:21;95953.59;;;14.55;59.40
6851;BME280;3464;42.728;23.296;2023-01-23T10:56:50;95971.60;;;13.66;61.77
6851;BME280;3464;42.728;23.296;2023-01-23T10:59:21;95957.27;;;13.70;62.43
6851;BME280;3464;42.728;23.296;2023-01-23T11:01:58;95968.59;;;13.62;63.05
6851;BME280;3464;42.728;23.296;2023-01-23T11:04:24;95965.29;;;13.68;62.76
6851;BME280;3464;42.728;23.296;2023-01-23T11:07:00;95965.24;;;13.64;62.05
6851;BME280;3464;42.728;23.296;2023-01-23T11:09:26;95957.67;;;13.65;62.54
6851;BME280;3464;42.728;23.296;2023-01-23T11:12:00;95960.64;;;14.29;61.83
6851;BME280;3464;42.728;23.296;2023-01-23T11:14:25;95959.06;;;14.52;60.28
6851;BME280;3464;42.728;23.296;2023-01-23T11:17:00;95949.61;;;14.21;60.71
6851;BME280;3464;42.728;23.296;2023-01-23T11:19:28;95950.16;;;14.46;60.05
6851;BME280;3464;42.728;23.296;2023-01-23T11:21:56;95952.48;;;14.97;59.49
6851;BME280;3464;42.728;23.296;2023-01-23T11:24:34;95972.88;;;13.70;62.01
6851;BME280;3464;42.728;23.296;2023-01-23T11:27:03;95950.84;;;13.58;62.60
6851;BME280;3464;42.728;23.296;2023-01-23T11:29:29;95945.13;;;13.81;62.58
6851;BME280;3464;42.728;23.296;2023-01-23T11:32:02;95944.19;;;13.67;63.32
6851;BME280;3464;42.728;23.296;2023-01-23T11:34:30;95939.64;;;14.55;61.47
6851;BME280;3464;42.728;23.296;2023-01-23T11:37:09;95932.23;;;15.07;59.85
6851;BME280;3464;42.728;23.296;2023-01-23T11:42:35;95934.80;;;15.32;59.09
6851;BME280;3464;42.728;23.296;2023-01-23T11:45:02;95935.61;;;15.09;59.52
6851;BME280;3464;42.728;23.296;2023-01-23T11:47:52;95942.06;;;14.28;60.79
6851;BME280;3464;42.728;23.296;2023-01-23T11:56:29;95940.41;;;14.30;60.82
6851;BME280;3464;42.728;23.296;2023-01-23T11:58:59;95947.20;;;14.40;61.01
6851;BME280;3464;42.728;23.296;2023-01-23T12:04:13;95948.17;;;13.92;62.39
6851;BME280;3464;42.728;23.296;2023-01-23T12:06:47;95957.12;;;14.07;61.98
6851;BME280;3464;42.728;23.296;2023-01-23T12:09:11;95946.19;;;14.14;61.67
6851;BME280;3464;42.728;23.296;2023-01-23T12:11:54;95953.80;;;14.17;61.56
6851;BME280;3464;42.728;23.296;2023-01-23T12:14:26;95950.64;;;13.84;62.83
6851;BME280;3464;42.728;23.296;2023-01-23T12:17:00;95940.14;;;13.90;62.38
6851;BME280;3464;42.728;23.296;2023-01-23T12:22:15;95944.95;;;13.58;63.47
6851;BME280;3464;42.728;23.296;2023-01-23T12:27:44;95957.77;;;13.81;63.50
6851;BME280;3464;42.728;23.296;2023-01-23T12:31:24;95951.39;;;13.72;63.68
6851;BME280;3464;42.728;23.296;2023-01-23T12:33:32;95959.86;;;13.77;63.25
6851;BME280;3464;42.728;23.296;2023-01-23T12:42:25;95956.19;;;13.95;62.48
6851;BME280;3464;42.728;23.296;2023-01-23T12:44:04;95957.17;;;13.10;65.47
6851;BME280;3464;42.728;23.296;2023-01-23T12:46:50;95953.72;;;13.48;64.82
6851;BME280;3464;42.728;23.296;2023-01-23T12:49:52;95969.05;;;13.19;65.01
6851;BME280;3464;42.728;23.296;2023-01-23T12:52:04;95966.12;;;13.21;65.02
6851;BME280;3464;42.728;23.296;2023-01-23T12:54:32;95964.39;;;13.63;64.08
6851;BME280;3464;42.728;23.296;2023-01-23T12:56:57;95972.02;;;13.18;64.96
6851;BME280;3464;42.728;23.296;2023-01-23T12:59:30;95965.48;;;13.41;64.97
6851;BME280;3464;42.728;23.296;2023-01-23T13:04:59;95972.41;;;13.64;65.01
6851;BME280;3464;42.728;23.296;2023-01-23T13:07:53;95968.10;;;13.52;64.44
6851;BME280;3464;42.728;23.296;2023-01-23T13:10:23;95971.95;;;13.62;64.50
6851;BME280;3464;42.728;23.296;2023-01-23T13:23:31;95986.64;;;12.72;68.71
6851;BME280;3464;42.728;23.296;2023-01-23T13:48:36;95995.99;;;12.81;71.60
6851;BME280;3464;42.728;23.296;2023-01-23T13:51:18;95980.67;;;12.67;72.59
6851;BME280;3464;42.728;23.296;2023-01-23T14:00:53;95987.18;;;12.84;72.80
6851;BME280;3464;42.728;23.296;2023-01-23T14:06:06;95982.64;;;12.55;73.15
6851;BME280;3464;42.728;23.296;2023-01-23T14:11:14;95995.44;;;12.36;74.11
6851;BME280;3464;42.728;23.296;2023-01-23T14:13:51;95989.57;;;13.07;71.94
6851;BME280;3464;42.728;23.296;2023-01-23T14:16:25;95997.98;;;12.37;73.02
6851;BME280;3464;42.728;23.296;2023-01-23T14:18:57;95998.00;;;12.73;71.98
6851;BME280;3464;42.728;23.296;2023-01-23T14:21:29;95992.74;;;12.90;72.13
6851;BME280;3464;42.728;23.296;2023-01-23T14:24:17;96010.99;;;13.00;70.82
6851;BME280;3464;42.728;23.296;2023-01-23T14:26:32;96001.15;;;12.55;72.50
6851;BME280;3464;42.728;23.296;2023-01-23T14:29:01;96004.32;;;12.72;72.28
6851;BME280;3464;42.728;23.296;2023-01-23T14:31:37;96007.01;;;12.86;71.68
6851;BME280;3464;42.728;23.296;2023-01-23T14:34:14;95995.33;;;12.97;72.25
6851;BME280;3464;42.728;23.296;2023-01-23T14:36:43;95996.90;;;13.21;69.79
6851;BME280;3464;42.728;23.296;2023-01-23T14:39:20;95995.66;;;13.25;70.52